Time;durP1;ratioP1;P1;durP2;ratioP2;P2;SDS_P1;SDS_P2;PMS_P1;PMS_P2;Temp;Humidity;BMP_temperature;BMP_pressure;BME280_temperature;BME280_humidity;BME280_pressure;Samples;Min_cycle;Max_cycle;Signal;HPM_P1;HPM_P2
2021/10/10 00:14:58;;;;;;;0.10;0.10;;;;;;;8.69;100.00;99843.00;5689318;23;20044;-86
2021/10/10 00:20:10;;;;;;;0.10;0.10;;;;;;;8.71;100.00;99821.41;4886473;29;20051;-80
2021/10/10 00:36:53;;;;;;;0.00;0.00;;;;;;;8.85;100.00;99822.69;5103641;23;20061;-88
2021/10/10 00:50:15;;;;;;;0.03;0.03;;;;;;;8.89;100.00;99821.13;4895899;29;20052;-87
2021/10/10 00:59:57;;;;;;;0.43;0.43;;;;;;;8.89;100.00;99810.47;4861823;29;20060;-88
2021/10/10 01:13:51;;;;;;;0.05;0.05;;;;;;;8.96;100.00;99802.31;4856764;29;20106;-88
2021/10/10 01:16:26;;;;;;;0.00;0.00;;;;;;;8.98;100.00;99789.50;4842896;29;20124;-83
2021/10/10 01:26:35;;;;;;;0.63;0.63;;;;;;;8.97;100.00;99796.72;4781835;30;20089;-83
2021/10/10 01:36:23;;;;;;;0.28;0.28;;;;;;;8.95;100.00;99788.13;5020379;23;20714;-90
2021/10/10 01:42:51;;;;;;;0.05;0.05;;;;;;;9.06;100.00;99799.75;4880412;29;20044;-80
2021/10/10 01:45:19;;;;;;;0.10;0.10;;;;;;;9.10;100.00;99805.41;4894307;29;20033;-86
2021/10/10 01:47:45;;;;;;;0.05;0.05;;;;;;;9.11;100.00;99801.69;4897357;29;20028;-87
2021/10/10 01:50:12;;;;;;;0.00;0.00;;;;;;;9.16;100.00;99798.28;4897981;29;20100;-85
2021/10/10 01:52:41;;;;;;;0.00;0.00;;;;;;;9.18;100.00;99799.66;4897093;29;20116;-80
2021/10/10 01:55:07;;;;;;;0.05;0.05;;;;;;;9.23;100.00;99798.91;4882406;29;20028;-83
2021/10/10 01:58:04;;;;;;;0.00;0.00;;;;;;;9.24;100.00;99792.50;4897298;29;20406;-87
2021/10/10 02:00:50;;;;;;;0.00;0.00;;;;;;;9.26;100.00;99790.38;4893136;29;20037;-91
2021/10/10 02:03:21;;;;;;;0.00;0.00;;;;;;;9.27;100.00;99786.66;4890145;29;20065;-91
2021/10/10 02:05:47;;;;;;;0.80;0.75;;;;;;;9.31;100.00;99786.97;4897694;29;20033;-85
2021/10/10 02:08:39;;;;;;;0.00;0.00;;;;;;;9.33;100.00;99790.22;4896790;29;20096;-91
2021/10/10 02:11:05;;;;;;;0.03;0.03;;;;;;;9.34;100.00;99789.13;4897523;29;20032;-92
2021/10/10 02:13:31;;;;;;;0.03;0.03;;;;;;;9.35;100.00;99788.09;4882462;29;20128;-91
2021/10/10 02:16:32;;;;;;;0.00;0.00;;;;;;;9.35;100.00;99788.09;4892917;29;20390;-92
2021/10/10 02:18:58;;;;;;;0.00;0.00;;;;;;;9.37;100.00;99800.13;4861060;29;20042;-90
2021/10/10 02:21:24;;;;;;;0.00;0.00;;;;;;;9.39;100.00;99794.56;4869685;29;20036;-91
2021/10/10 02:23:50;;;;;;;0.00;0.00;;;;;;;9.36;100.00;99789.69;4864734;29;20080;-91
2021/10/10 02:26:16;;;;;;;1.75;0.82;;;;;;;9.41;100.00;99797.75;4848328;29;20100;-92
2021/10/10 02:28:44;;;;;;;0.00;0.00;;;;;;;9.43;100.00;99791.13;4879422;29;20032;-93
2021/10/10 02:31:11;;;;;;;0.00;0.00;;;;;;;9.44;100.00;99787.41;4847298;29;20061;-93
2021/10/10 02:34:18;;;;;;;0.00;0.00;;;;;;;9.48;100.00;99790.38;4878134;29;20077;-90
2021/10/10 02:36:49;;;;;;;0.00;0.00;;;;;;;9.50;100.00;99784.81;4879105;29;20041;-86
2021/10/10 02:39:21;;;;;;;0.10;0.10;;;;;;;9.49;100.00;99781.31;4878384;29;20044;-86
2021/10/10 02:41:48;;;;;;;0.10;0.10;;;;;;;9.50;100.00;99788.28;4877084;29;20057;-88
2021/10/10 02:44:13;;;;;;;0.00;0.00;;;;;;;9.50;100.00;99779.47;4878312;29;20043;-85
2021/10/10 02:46:39;;;;;;;0.00;0.00;;;;;;;9.49;100.00;99777.84;4877315;29;20032;-84
2021/10/10 02:49:04;;;;;;;0.03;0.03;;;;;;;9.48;100.00;99785.03;4877937;29;20092;-87
2021/10/10 02:51:30;;;;;;;0.00;0.00;;;;;;;9.46;100.00;99779.16;4876965;29;20033;-91
2021/10/10 02:53:57;;;;;;;0.00;0.00;;;;;;;9.47;100.00;99778.06;4878048;29;20069;-88
2021/10/10 02:56:23;;;;;;;0.32;0.32;;;;;;;9.49;100.00;99780.50;4878754;29;20025;-94
2021/10/10 02:58:49;;;;;;;0.00;0.00;;;;;;;9.47;100.00;99778.06;4877782;29;20402;-86
2021/10/10 03:01:17;;;;;;;0.00;0.00;;;;;;;9.47;100.00;99772.72;4878069;29;20485;-87
2021/10/10 03:03:42;;;;;;;0.00;0.00;;;;;;;9.47;100.00;99772.72;4859208;29;20048;-88
2021/10/10 03:06:08;;;;;;;0.32;0.32;;;;;;;9.48;100.00;99773.56;4859213;29;20458;-81
2021/10/10 03:08:36;;;;;;;0.00;0.00;;;;;;;9.45;100.00;99764.97;4858804;29;20088;-82
2021/10/10 03:11:01;;;;;;;0.00;0.00;;;;;;;9.44;100.00;99765.25;4859415;29;20037;-86
2021/10/10 03:13:27;;;;;;;0.03;0.03;;;;;;;9.44;100.00;99767.91;4859165;29;20041;-90
2021/10/10 03:15:53;;;;;;;0.63;0.63;;;;;;;9.44;100.00;99762.56;4866577;29;20520;-86
2021/10/10 03:18:18;;;;;;;0.00;0.00;;;;;;;9.42;100.00;99770.00;4864416;29;20041;-90
2021/10/10 03:20:44;;;;;;;0.00;0.00;;;;;;;9.43;100.00;99772.44;4861314;29;20037;-85
2021/10/10 03:23:09;;;;;;;0.00;0.00;;;;;;;9.43;100.00;99767.09;4877799;29;20037;-85
2021/10/10 03:25:35;;;;;;;0.00;0.00;;;;;;;9.41;100.00;99763.88;4877569;29;20033;-87
2021/10/10 03:28:00;;;;;;;0.10;0.10;;;;;;;9.41;100.00;99768.41;4876879;29;20047;-91
2021/10/10 03:30:26;;;;;;;0.65;0.65;;;;;;;9.37;100.00;99754.75;4877457;29;20503;-87
2021/10/10 03:32:52;;;;;;;0.15;0.15;;;;;;;9.38;100.00;99760.91;4876929;29;20172;-86
2021/10/10 03:35:22;;;;;;;0.00;0.00;;;;;;;9.38;100.00;99766.25;4877006;29;20123;-91
2021/10/10 03:37:49;;;;;;;0.00;0.00;;;;;;;9.36;100.00;99755.81;4846496;29;20069;-86
2021/10/10 03:40:16;;;;;;;0.00;0.00;;;;;;;9.34;100.00;99754.44;4877148;29;20149;-87
2021/10/10 03:42:52;;;;;;;0.00;0.00;;;;;;;9.35;100.00;99753.38;4877618;29;20173;-94
2021/10/10 03:45:21;;;;;;;0.05;0.05;;;;;;;9.35;100.00;99754.22;4877480;29;20137;-90
2021/10/10 03:47:46;;;;;;;0.10;0.10;;;;;;;9.34;100.00;99757.09;4871083;29;20148;-88
2021/10/10 03:56:32;;;;;;;0.00;0.00;;;;;;;9.32;100.00;99759.25;4870913;29;20062;-85
2021/10/10 03:58:58;;;;;;;0.00;0.00;;;;;;;9.34;100.00;99760.59;4877063;29;20552;-91
2021/10/10 04:01:25;;;;;;;0.00;0.00;;;;;;;9.34;100.00;99759.78;4860979;29;20060;-88
2021/10/10 04:03:51;;;;;;;0.30;0.30;;;;;;;9.35;100.00;99761.38;4876127;29;20041;-88
2021/10/10 04:06:19;;;;;;;0.00;0.00;;;;;;;9.36;100.00;99763.00;4876598;29;20037;-88
2021/10/10 04:08:45;;;;;;;;;;;;;;;9.38;100.00;99759.03;4877146;29;20116;-90
2021/10/10 04:11:11;;;;;;;0.30;0.30;;;;;;;9.34;100.00;99757.09;4861227;29;20443;-91
2021/10/10 04:13:52;;;;;;;0.00;0.00;;;;;;;9.39;100.00;99768.66;4857669;29;20098;-85
2021/10/10 04:16:17;;;;;;;0.00;0.00;;;;;;;9.41;100.00;99760.38;4857911;29;20112;-88
2021/10/10 04:18:43;;;;;;;0.15;0.15;;;;;;;9.44;100.00;99762.56;4864561;29;20051;-88
2021/10/10 04:21:08;;;;;;;0.00;0.00;;;;;;;9.47;100.00;99775.41;4862698;29;20068;-90
2021/10/10 04:23:34;;;;;;;0.00;0.00;;;;;;;9.48;100.00;99771.69;4864155;29;20034;-87
2021/10/10 04:26:00;;;;;;;0.00;0.00;;;;;;;9.52;100.00;99766.66;4858525;29;20069;-91
2021/10/10 04:28:26;;;;;;;0.00;0.00;;;;;;;9.51;100.00;99773.03;4871302;29;20036;-93
2021/10/10 04:30:52;;;;;;;0.43;0.43;;;;;;;9.47;100.00;99763.94;4876510;29;20047;-90
2021/10/10 04:33:17;;;;;;;0.40;0.40;;;;;;;9.51;100.00;99776.53;4877981;29;20056;-94
2021/10/10 04:35:43;;;;;;;0.00;0.00;;;;;;;9.49;100.00;99769.84;4877217;29;20064;-92
2021/10/10 04:38:10;;;;;;;0.00;0.00;;;;;;;9.51;100.00;99767.69;4876176;29;20048;-93
2021/10/10 04:40:36;;;;;;;0.00;0.00;;;;;;;9.49;100.00;99767.16;4877180;29;20039;-84
2021/10/10 04:43:08;;;;;;;0.00;0.00;;;;;;;9.50;100.00;99768.78;4874788;29;20127;-88
2021/10/10 04:45:34;;;;;;;0.00;0.00;;;;;;;9.45;100.00;99764.97;4875030;29;20038;-89
2021/10/10 04:48:00;;;;;;;0.00;0.00;;;;;;;9.44;100.00;99768.69;4869787;29;20043;-95
2021/10/10 04:50:34;;;;;;;0.10;0.10;;;;;;;9.44;100.00;99768.69;4862575;29;20436;-94
2021/10/10 04:53:10;;;;;;;0.00;0.00;;;;;;;9.43;100.00;99767.09;4862588;29;20025;-95
2021/10/10 04:55:36;;;;;;;0.00;0.00;;;;;;;9.41;100.00;99761.22;4874886;29;20037;-94
2021/10/10 04:58:54;;;;;;;0.00;0.00;;;;;;;9.39;100.00;99765.19;4876405;29;20043;-96
2021/10/10 05:02:00;;;;;;;0.00;0.00;;;;;;;9.34;100.00;99757.94;4875773;29;20152;-91
2021/10/10 05:04:25;;;;;;;0.00;0.00;;;;;;;9.35;100.00;99764.06;4860523;29;20467;-89
2021/10/10 05:07:40;;;;;;;0.03;0.03;;;;;;;9.25;100.00;99757.56;4854649;29;20066;-92
2021/10/10 05:10:52;;;;;;;0.10;0.10;;;;;;;9.29;100.00;99774.69;4870933;29;20044;-91
2021/10/10 05:13:37;;;;;;;0.00;0.00;;;;;;;9.29;100.00;99789.91;4861568;29;20045;-93
2021/10/10 05:16:36;;;;;;;;;;;;;;;9.26;100.00;99783.22;4877329;29;20099;-89
2021/10/10 05:20:13;;;;;;;0.05;0.05;;;;;;;9.25;100.00;99794.13;4879049;29;19923;-92
2021/10/10 05:26:31;;;;;;;0.00;0.00;;;;;;;9.20;100.00;99786.03;4872364;29;20036;-88
2021/10/10 05:29:55;;;;;;;0.13;0.13;;;;;;;9.22;100.00;99789.28;4859303;29;20030;-92
2021/10/10 05:40:13;;;;;;;0.20;0.20;;;;;;;9.20;100.00;99805.53;4857491;29;20573;-88
2021/10/10 05:43:39;;;;;;;0.20;0.20;;;;;;;9.18;100.00;99802.31;4853663;29;20056;-90
2021/10/10 05:47:18;;;;;;;0.52;0.52;;;;;;;9.19;100.00;99803.94;4849597;29;20066;-91
2021/10/10 05:50:53;;;;;;;0.00;0.00;;;;;;;9.21;100.00;99811.69;4842369;29;20077;-90
2021/10/10 05:54:37;;;;;;;0.10;0.10;;;;;;;9.22;100.00;99805.31;4914444;29;20132;-90
2021/10/10 06:01:33;;;;;;;0.22;0.22;;;;;;;9.18;100.00;99807.66;4762508;29;20060;-89
2021/10/10 06:12:07;;;;;;;0.10;0.10;;;;;;;9.18;100.00;99799.66;4737654;30;20694;-89
2021/10/10 06:19:06;;;;;;;0.15;0.15;;;;;;;9.18;100.00;99794.31;4727923;30;20063;-86
2021/10/10 06:26:04;;;;;;;1.10;0.50;;;;;;;9.18;100.00;99814.84;4704660;30;20065;-90
2021/10/10 06:29:26;;;;;;;2.17;1.10;;;;;;;9.20;100.00;99816.19;4704468;30;20057;-88
2021/10/10 06:32:21;;;;;;;0.30;0.30;;;;;;;9.19;100.00;99808.44;4727187;30;20128;-89
2021/10/10 06:36:10;;;;;;;0.10;0.10;;;;;;;9.11;100.00;99799.81;4733501;30;20068;-89
2021/10/10 07:02:49;;;;;;;0.10;0.10;;;;;;;9.00;100.00;99786.63;4943892;24;20048;-91
2021/10/10 07:06:09;;;;;;;0.08;0.08;;;;;;;9.03;100.00;99800.22;4927216;29;20078;-84
2021/10/10 07:09:05;;;;;;;0.00;0.00;;;;;;;8.96;100.00;99786.28;4928646;29;20028;-83
2021/10/10 07:15:01;;;;;;;0.10;0.10;;;;;;;8.92;100.00;99802.00;4883311;29;20051;-84
2021/10/10 07:18:21;;;;;;;1.20;1.13;;;;;;;8.92;100.00;99790.50;4877786;29;20059;-86
2021/10/10 07:21:22;;;;;;;0.05;0.05;;;;;;;8.94;100.00;99796.41;4873524;29;20036;-80
2021/10/10 07:33:44;;;;;;;0.00;0.00;;;;;;;8.93;100.00;99803.56;4877071;29;20043;-83
2021/10/10 07:43:35;;;;;;;0.00;0.00;;;;;;;8.97;100.00;99803.88;4862377;29;20105;-81
2021/10/10 07:46:17;;;;;;;0.40;0.40;;;;;;;8.93;100.00;99806.25;4876417;29;20059;-81
2021/10/10 07:52:05;;;;;;;0.10;0.10;;;;;;;8.96;100.00;99807.63;4888975;29;20425;-82
2021/10/10 07:54:31;;;;;;;0.17;0.17;;;;;;;8.95;100.00;99808.69;4883197;29;20043;-77
2021/10/10 07:56:56;;;;;;;0.30;0.30;;;;;;;8.95;100.00;99800.69;4896181;29;20032;-77
2021/10/10 07:59:22;;;;;;;0.28;0.28;;;;;;;8.99;100.00;99806.34;4888396;29;20040;-80
2021/10/10 08:01:47;;;;;;;0.30;0.30;;;;;;;8.97;100.00;99795.88;4884004;29;20027;-77
2021/10/10 08:04:13;;;;;;;0.10;0.10;;;;;;;9.02;100.00;99803.16;4897307;29;20083;-77
2021/10/10 08:09:43;;;;;;;0.57;0.57;;;;;;;9.06;100.00;99793.63;4884520;29;20060;-88
2021/10/10 08:12:11;;;;;;;0.10;0.10;;;;;;;9.05;100.00;99800.00;4886458;29;20037;-81
2021/10/10 08:14:36;;;;;;;0.20;0.20;;;;;;;9.05;100.00;99798.13;4877117;29;20420;-78
2021/10/10 08:17:04;;;;;;;0.00;0.00;;;;;;;9.07;100.00;99793.38;4888304;29;20036;-85
2021/10/10 08:19:30;;;;;;;0.00;0.00;;;;;;;9.06;100.00;99797.09;4897449;29;20452;-80
2021/10/10 08:21:56;;;;;;;0.10;0.10;;;;;;;9.05;100.00;99800.00;4895772;29;20032;-77
2021/10/10 08:24:23;;;;;;;0.28;0.28;;;;;;;9.05;100.00;99800.00;4895719;29;20039;-79
2021/10/10 08:26:48;;;;;;;1.27;1.20;;;;;;;9.06;100.00;99805.09;4877624;29;20500;-78
2021/10/10 08:29:17;;;;;;;0.30;0.30;;;;;;;9.06;100.00;99791.75;4879172;29;20033;-79
2021/10/10 08:31:43;;;;;;;0.00;0.00;;;;;;;9.08;100.00;99792.31;4895286;29;20404;-83
2021/10/10 08:34:09;;;;;;;0.65;0.65;;;;;;;9.10;100.00;99803.53;4876867;29;20117;-81
2021/10/10 08:36:34;;;;;;;0.22;0.22;;;;;;;9.11;100.00;99802.47;4877585;29;20512;-78
2021/10/10 08:39:00;;;;;;;0.10;0.10;;;;;;;9.12;100.00;99798.78;4885527;29;20028;-76
2021/10/10 08:41:32;;;;;;;0.08;0.08;;;;;;;9.13;100.00;99789.72;4881159;29;20041;-77
2021/10/10 08:44:02;;;;;;;0.00;0.00;;;;;;;9.18;100.00;99798.81;4884747;29;20036;-76
2021/10/10 08:46:32;;;;;;;0.00;0.00;;;;;;;9.16;100.00;99792.94;4891466;29;20504;-75
2021/10/10 08:48:57;;;;;;;0.10;0.10;;;;;;;9.19;100.00;99784.44;4877416;29;20401;-79
2021/10/10 08:51:23;;;;;;;0.00;0.00;;;;;;;9.20;100.00;99796.72;4878955;29;20039;-77
2021/10/10 08:53:49;;;;;;;1.17;0.80;;;;;;;9.18;100.00;99788.16;4881560;29;20048;-78
2021/10/10 08:56:14;;;;;;;0.20;0.20;;;;;;;9.19;100.00;99784.44;4900808;29;20069;-74
2021/10/10 08:58:44;;;;;;;0.00;0.00;;;;;;;9.13;100.00;99781.72;4880453;29;20025;-76
2021/10/10 09:01:16;;;;;;;0.20;0.20;;;;;;;9.15;100.00;99789.47;4889198;29;20304;-77
2021/10/10 09:03:49;;;;;;;0.00;0.00;;;;;;;9.16;100.00;99791.06;4878758;29;20068;-75
2021/10/10 09:06:15;;;;;;;1.85;1.75;;;;;;;9.15;100.00;99786.78;4888415;29;20049;-78
2021/10/10 09:08:41;;;;;;;0.00;0.00;;;;;;;9.16;100.00;99791.06;4882087;29;20588;-78
2021/10/10 09:11:08;;;;;;;0.95;0.93;;;;;;;9.17;100.00;99779.34;4885767;29;20450;-78
2021/10/10 09:13:36;;;;;;;0.10;0.10;;;;;;;9.23;100.00;99789.03;4891046;29;20119;-77
2021/10/10 09:16:04;;;;;;;3.72;2.30;;;;;;;9.23;100.00;99780.22;4888620;29;20036;-79
2021/10/10 09:18:40;;;;;;;1.33;0.60;;;;;;;9.26;100.00;99783.22;4879996;29;20029;-77
2021/10/10 09:21:27;;;;;;;0.10;0.10;;;;;;;9.31;100.00;99784.31;4878061;29;20556;-76
2021/10/10 09:24:07;;;;;;;0.50;0.50;;;;;;;9.34;100.00;99779.28;4883481;29;20082;-92
2021/10/10 09:26:42;;;;;;;0.30;0.30;;;;;;;9.36;100.00;99773.69;4888910;29;20024;-75
2021/10/10 09:29:29;;;;;;;0.25;0.25;;;;;;;9.38;100.00;99779.59;4878449;29;20040;-75
2021/10/10 09:32:03;;;;;;;1.30;1.00;;;;;;;9.41;100.00;99782.56;4877160;29;20417;-75
2021/10/10 09:34:28;;;;;;;0.10;0.10;;;;;;;9.43;100.00;99785.78;4888665;29;20511;-80
2021/10/10 09:36:57;;;;;;;0.00;0.00;;;;;;;9.47;100.00;99780.75;4898447;29;20048;-76
2021/10/10 09:39:34;;;;;;;1.27;0.38;;;;;;;9.47;100.00;99775.41;4894926;29;20495;-75
2021/10/10 09:42:00;;;;;;;0.52;0.52;;;;;;;9.51;100.00;99791.72;4883025;29;20044;-76
2021/10/10 09:44:33;;;;;;;0.65;0.65;;;;;;;9.52;100.00;99780.00;4883582;29;20036;-76
2021/10/10 09:47:01;;;;;;;0.20;0.20;;;;;;;9.56;100.00;99781.13;4881890;29;20036;-76
2021/10/10 09:49:29;;;;;;;0.00;0.00;;;;;;;9.63;100.00;99789.75;4880762;29;20454;-74
2021/10/10 09:52:15;;;;;;;0.10;0.10;;;;;;;9.69;100.00;99788.75;4898593;29;20028;-78
2021/10/10 09:54:54;;;;;;;0.00;0.00;;;;;;;9.75;100.00;99792.25;4880932;29;20285;-78
2021/10/10 09:57:24;;;;;;;0.00;0.00;;;;;;;9.77;100.00;99787.47;4897443;29;20029;-83
2021/10/10 09:59:50;;;;;;;0.10;0.10;;;;;;;9.80;100.00;99788.84;4895552;29;20032;-76
2021/10/10 10:02:17;;;;;;;0.00;0.00;;;;;;;9.78;100.00;99787.22;4882357;29;20052;-80
2021/10/10 10:04:51;;;;;;;5.90;1.35;;;;;;;9.78;100.00;99787.22;4891337;29;20485;-78
2021/10/10 10:07:19;;;;;;;0.20;0.20;;;;;;;9.80;100.00;99788.84;4881588;29;20040;-79
2021/10/10 10:09:50;;;;;;;0.55;0.55;;;;;;;9.85;100.00;99787.03;4885611;29;20035;-79
2021/10/10 10:12:20;;;;;;;0.63;0.63;;;;;;;9.88;100.00;99783.03;4883571;29;20123;-79
2021/10/10 10:14:51;;;;;;;0.68;0.68;;;;;;;9.86;100.00;99780.63;4896592;29;20064;-77
2021/10/10 10:17:20;;;;;;;1.13;0.63;;;;;;;9.91;100.00;99778.00;4881255;29;20040;-81
2021/10/10 10:19:46;;;;;;;0.25;0.25;;;;;;;9.88;99.58;99783.84;4892431;29;20088;-79
2021/10/10 10:22:16;;;;;;;0.38;0.38;;;;;;;9.93;100.00;99775.06;4885347;29;20460;-78
2021/10/10 10:24:45;;;;;;;0.22;0.22;;;;;;;9.94;99.72;99782.03;4880176;29;20039;-78
2021/10/10 10:27:12;;;;;;;0.47;0.47;;;;;;;9.98;99.85;99782.34;4886166;29;20036;-78
2021/10/10 10:29:41;;;;;;;0.00;0.00;;;;;;;9.99;98.99;99782.06;4893496;29;20128;-79
2021/10/10 10:32:07;;;;;;;;;;;;;;;10.04;99.72;99784.78;4894309;29;20037;-74
2021/10/10 10:34:33;;;;;;;0.00;0.00;;;;;;;10.06;99.33;99790.69;4879400;29;19964;-72
2021/10/10 10:36:58;;;;;;;0.17;0.17;;;;;;;10.06;99.33;99771.97;4886044;29;20040;-75
2021/10/10 10:39:49;;;;;;;4.30;0.40;;;;;;;10.10;99.92;99774.94;4880802;29;20036;-77
2021/10/10 10:42:23;;;;;;;0.98;0.65;;;;;;;10.14;99.80;99768.03;4896126;29;20035;-73
2021/10/10 10:44:53;;;;;;;0.10;0.10;;;;;;;10.15;100.00;99764.28;4882466;29;20048;-73
2021/10/10 10:47:43;;;;;;;1.20;1.10;;;;;;;10.19;99.09;99776.09;4879503;29;20029;-73
2021/10/10 10:50:23;;;;;;;0.10;0.10;;;;;;;10.25;99.15;99775.09;4878582;29;20041;-73
2021/10/10 10:53:09;;;;;;;0.63;0.63;;;;;;;10.32;100.00;99776.72;4879369;29;20033;-73
2021/10/10 10:55:39;;;;;;;0.17;0.17;;;;;;;10.35;99.31;99771.69;4879190;29;20032;-73
2021/10/10 10:58:14;;;;;;;0.00;0.00;;;;;;;10.42;99.67;99771.47;4878780;29;20047;-73
2021/10/10 11:00:40;;;;;;;0.00;0.00;;;;;;;10.47;100.00;99766.16;4879285;29;20120;-74
2021/10/10 11:03:24;;;;;;;0.20;0.20;;;;;;;10.50;99.19;99767.53;4878857;29;20064;-73
2021/10/10 11:05:52;;;;;;;0.10;0.10;;;;;;;10.53;98.53;99767.00;4879422;29;20040;-73
2021/10/10 11:08:17;;;;;;;0.38;0.38;;;;;;;10.55;98.06;99765.69;4879103;29;20037;-73
2021/10/10 11:11:04;;;;;;;0.00;0.00;;;;;;;10.55;97.80;99763.00;4878983;29;20092;-73
2021/10/10 11:13:45;;;;;;;0.30;0.30;;;;;;;10.54;97.11;99763.28;4878981;29;20088;-73
2021/10/10 11:16:21;;;;;;;0.10;0.10;;;;;;;10.55;97.38;99767.56;4878678;29;20032;-73
2021/10/10 11:18:52;;;;;;;0.28;0.28;;;;;;;10.54;98.78;99766.75;4878873;29;20028;-74
2021/10/10 11:21:20;;;;;;;0.00;0.00;;;;;;;10.57;98.11;99766.25;4878775;29;20032;-73
2021/10/10 11:23:51;;;;;;;0.00;0.00;;;;;;;10.59;98.54;99774.00;4878600;29;20112;-73
2021/10/10 11:26:17;;;;;;;0.20;0.20;;;;;;;10.59;98.45;99760.63;4878286;29;20101;-74
2021/10/10 11:28:49;;;;;;;0.00;0.00;;;;;;;10.64;99.53;99751.81;4878815;29;20033;-73
2021/10/10 11:31:29;;;;;;;0.00;0.00;;;;;;;10.69;98.96;99750.00;4878471;29;20064;-73
2021/10/10 11:33:57;;;;;;;0.00;0.00;;;;;;;10.70;99.16;99745.44;4878498;29;20036;-73
2021/10/10 11:36:34;;;;;;;0.00;0.00;;;;;;;10.78;98.95;99757.50;4878660;29;20029;-73
2021/10/10 11:39:21;;;;;;;0.00;0.00;;;;;;;10.81;100.00;99748.97;4878362;29;20056;-73
2021/10/10 11:41:50;;;;;;;0.00;0.00;;;;;;;10.86;99.53;99744.47;4878417;29;20041;-73
2021/10/10 11:44:18;;;;;;;0.03;0.03;;;;;;;10.89;98.41;99737.78;4878221;29;20029;-73
2021/10/10 11:46:49;;;;;;;0.00;0.00;;;;;;;10.92;99.11;99723.88;4878450;29;20413;-73
2021/10/10 11:52:16;;;;;;;0.00;0.00;;;;;;;11.00;98.66;99733.28;4878061;29;20055;-74
2021/10/10 11:54:44;;;;;;;0.00;0.00;;;;;;;11.02;98.90;99736.47;4877643;29;20033;-73
2021/10/10 11:57:11;;;;;;;0.00;0.00;;;;;;;11.05;99.05;99726.06;4878046;29;20229;-73
2021/10/10 11:59:50;;;;;;;1.35;1.25;;;;;;;11.05;98.89;99733.31;4878487;29;20036;-73
2021/10/10 12:02:16;;;;;;;0.00;0.00;;;;;;;11.13;98.62;99734.66;4877816;29;20036;-73
2021/10/10 12:04:41;;;;;;;0.10;0.10;;;;;;;11.15;98.16;99735.22;4878089;29;20466;-73
2021/10/10 12:07:07;;;;;;;0.20;0.20;;;;;;;11.18;98.66;99732.81;4877885;29;20504;-73
2021/10/10 12:09:32;;;;;;;0.00;0.00;;;;;;;11.21;97.69;99726.13;4876731;29;20040;-73
2021/10/10 12:12:03;;;;;;;0.00;0.00;;;;;;;11.21;97.42;99715.41;4877740;29;20029;-73
2021/10/10 12:14:55;;;;;;;0.10;0.10;;;;;;;11.19;97.50;99718.38;4877995;29;20029;-73
2021/10/10 12:17:40;;;;;;;0.10;0.10;;;;;;;11.24;97.50;99717.53;4877608;29;20164;-73
2021/10/10 12:20:18;;;;;;;0.00;0.00;;;;;;;11.22;97.34;99711.66;4877577;29;20043;-73
2021/10/10 12:22:54;;;;;;;0.00;0.00;;;;;;;11.28;97.42;99712.47;4877850;29;20037;-73
2021/10/10 12:25:27;;;;;;;0.00;0.00;;;;;;;11.27;96.69;99714.34;4877561;29;20453;-73
2021/10/10 12:28:19;;;;;;;0.00;0.00;;;;;;;11.33;97.33;99707.94;4877796;29;20037;-73
2021/10/10 12:30:56;;;;;;;0.20;0.20;;;;;;;11.30;97.33;99702.31;4876998;29;20481;-73
2021/10/10 12:33:40;;;;;;;0.10;0.10;;;;;;;11.31;97.34;99691.31;4877577;29;20491;-72
2021/10/10 12:36:06;;;;;;;0.00;0.00;;;;;;;11.32;96.57;99692.16;4877753;29;20398;-75
2021/10/10 12:38:46;;;;;;;0.00;0.00;;;;;;;11.30;97.38;99692.41;4877615;29;20045;-73
2021/10/10 12:41:20;;;;;;;0.05;0.05;;;;;;;11.31;97.61;99691.31;4877365;29;20036;-72
2021/10/10 12:43:56;;;;;;;0.00;0.00;;;;;;;11.33;97.67;99694.56;4877583;29;20033;-74
2021/10/10 12:46:24;;;;;;;0.00;0.00;;;;;;;11.30;97.71;99689.75;4877041;29;20051;-74
2021/10/10 12:49:07;;;;;;;0.00;0.00;;;;;;;11.32;97.46;99681.44;4877517;29;20163;-74
2021/10/10 12:51:34;;;;;;;0.00;0.00;;;;;;;11.33;97.68;99691.09;4877504;29;20476;-74
2021/10/10 12:54:20;;;;;;;0.00;0.00;;;;;;;11.33;97.84;99686.53;4876993;29;20033;-74
2021/10/10 12:57:04;;;;;;;0.20;0.20;;;;;;;11.33;98.10;99686.53;4877457;29;20040;-74
2021/10/10 12:59:31;;;;;;;0.00;0.00;;;;;;;11.31;97.70;99680.63;4877411;29;20481;-74
2021/10/10 13:01:58;;;;;;;0.00;0.00;;;;;;;11.33;97.56;99675.81;4877435;29;20108;-74
2021/10/10 13:04:23;;;;;;;0.00;0.00;;;;;;;11.35;97.94;99673.69;4877344;29;20109;-74
2021/10/10 13:06:49;;;;;;;0.00;0.00;;;;;;;11.40;97.03;99670.22;4879370;29;20033;-74
2021/10/10 13:09:16;;;;;;;0.10;0.10;;;;;;;11.40;97.60;99672.06;4881301;29;20025;-74
2021/10/10 13:11:43;;;;;;;0.00;0.00;;;;;;;11.41;97.35;99679.03;4881110;29;20565;-74
2021/10/10 13:14:09;;;;;;;0.00;0.00;;;;;;;11.39;96.89;99679.31;4880926;29;20037;-74
2021/10/10 13:16:35;;;;;;;0.00;0.00;;;;;;;11.42;97.13;99677.97;4880972;29;20032;-74
2021/10/10 13:19:00;;;;;;;0.00;0.00;;;;;;;11.42;97.31;99673.41;4880579;29;20481;-74
2021/10/10 13:21:26;;;;;;;0.00;0.00;;;;;;;11.38;96.92;99656.28;4880709;29;20032;-74
2021/10/10 13:23:52;;;;;;;0.00;0.00;;;;;;;11.43;96.84;99653.59;4880976;29;20131;-74
2021/10/10 13:26:19;;;;;;;0.00;0.00;;;;;;;11.43;97.09;99642.88;4880727;29;20528;-74
2021/10/10 13:28:45;;;;;;;0.20;0.20;;;;;;;11.43;97.36;99648.25;4881144;29;20037;-74
2021/10/10 13:31:10;;;;;;;0.00;0.00;;;;;;;11.39;97.77;99649.84;4880483;29;20029;-74
2021/10/10 13:33:36;;;;;;;0.00;0.00;;;;;;;11.40;97.05;99643.44;4880804;29;20029;-74
2021/10/10 13:36:05;;;;;;;0.00;0.00;;;;;;;11.42;97.87;99651.19;4880564;29;20033;-74
2021/10/10 13:38:31;;;;;;;0.00;0.00;;;;;;;11.43;97.55;99652.81;4880662;29;20037;-74
2021/10/10 13:40:57;;;;;;;0.00;0.00;;;;;;;11.41;97.56;99657.63;4880653;29;20033;-74
2021/10/10 13:43:23;;;;;;;0.10;0.10;;;;;;;11.44;97.94;99652.53;4880266;29;20036;-74
2021/10/10 13:45:57;;;;;;;0.00;0.00;;;;;;;11.44;97.85;99647.16;4880606;29;20033;-74
2021/10/10 13:48:25;;;;;;;0.00;0.00;;;;;;;11.47;97.46;99651.19;4880331;29;20064;-74
2021/10/10 13:50:51;;;;;;;0.10;0.10;;;;;;;11.48;97.68;99650.13;4880411;29;20033;-74
2021/10/10 13:53:16;;;;;;;0.00;0.00;;;;;;;11.51;97.26;99660.28;4878980;29;20029;-74
2021/10/10 13:55:42;;;;;;;0.03;0.03;;;;;;;11.51;97.75;99657.59;4880298;29;20486;-75
2021/10/10 13:58:07;;;;;;;0.00;0.00;;;;;;;11.51;96.87;99660.28;4880120;29;20025;-74
2021/10/10 14:00:33;;;;;;;0.10;0.10;;;;;;;11.49;97.49;99659.78;4880354;29;20029;-74
2021/10/10 14:02:58;;;;;;;0.10;0.10;;;;;;;11.49;97.11;99665.91;4880195;29;20072;-74
2021/10/10 14:05:24;;;;;;;0.52;0.52;;;;;;;11.47;96.98;99653.88;4879812;29;20033;-74
2021/10/10 14:07:49;;;;;;;0.00;0.00;;;;;;;11.46;97.37;99653.06;4880222;29;20056;-74
2021/10/10 14:10:14;;;;;;;0.00;0.00;;;;;;;11.50;97.27;99661.38;4880085;29;20081;-74
2021/10/10 14:12:40;;;;;;;0.00;0.00;;;;;;;11.48;97.41;99655.47;4880123;29;20067;-75
2021/10/10 14:15:06;;;;;;;0.08;0.08;;;;;;;11.47;97.92;99645.84;4880096;29;20113;-73
2021/10/10 14:17:31;;;;;;;0.10;0.10;;;;;;;11.47;97.46;99654.66;4879280;29;20063;-74
2021/10/10 14:19:57;;;;;;;0.00;0.00;;;;;;;11.46;97.69;99653.06;4880304;29;20065;-74
2021/10/10 14:22:23;;;;;;;0.00;0.00;;;;;;;11.48;97.95;99660.84;4879783;29;20652;-74
2021/10/10 14:24:50;;;;;;;0.10;0.10;;;;;;;11.45;98.13;99653.31;4879930;29;20033;-75
2021/10/10 14:27:15;;;;;;;0.20;0.20;;;;;;;11.43;97.42;99653.59;4879653;29;20040;-74
2021/10/10 14:29:40;;;;;;;0.00;0.00;;;;;;;11.43;97.36;99652.81;4879999;29;20033;-74
2021/10/10 14:32:06;;;;;;;0.00;0.00;;;;;;;11.41;98.21;99646.91;4879837;29;20514;-74
2021/10/10 14:34:32;;;;;;;0.10;0.10;;;;;;;11.36;97.72;99637.81;4879666;29;20029;-74
2021/10/10 14:36:57;;;;;;;0.05;0.05;;;;;;;11.34;97.75;99634.56;4879966;29;20168;-74
2021/10/10 14:39:23;;;;;;;0.00;0.00;;;;;;;11.35;98.14;99635.38;4879469;29;20025;-74
2021/10/10 14:41:51;;;;;;;0.00;0.00;;;;;;;11.36;98.05;99643.16;4879597;29;20029;-74
2021/10/10 14:46:51;;;;;;;0.00;0.00;;;;;;;11.35;98.43;99640.72;4879208;29;20044;-73
2021/10/10 14:49:16;;;;;;;0.00;0.00;;;;;;;11.38;98.93;99641.00;4879481;29;20396;-74
2021/10/10 14:51:41;;;;;;;0.00;0.00;;;;;;;11.37;98.72;99636.72;4879405;29;20037;-74
2021/10/10 14:54:07;;;;;;;0.00;0.00;;;;;;;11.37;99.40;99617.97;4878878;29;20061;-74
2021/10/10 14:56:33;;;;;;;0.20;0.20;;;;;;;11.41;98.89;99633.50;4879101;29;20632;-74